Energy Champion — MJUZ7 — position and weather

sailwx.info

Track history (hours):
 
Tides and Currents Weather Stations Pressure Air Temp Water Temp Dewpoint Dewpoint Depression Visibility Wind Speed Wind Dir Waves Ship Positions

Energy Champion

Last reported at 2015-Mar-16 18:28 UTC. Time now 2015-Apr-01 14:28 UTC.
Position N 31°52' W 117°39'.
Warning: this ship's position is 15 days out of date.

Length 228 m; draft 8 m.

Type: Tanker. MMSI: 235009420.

Date/timePositionNaut miles runAvg speedWind from/ knotsBaromVisibWave heightAir tempDewpointWater temp
2015-Mar-16 18:28N 31°52' W 117°39'1212.2
2015-Mar-16 17:32N 32°04' W 117°42'6 5.8
2015-Mar-16 16:33N 32°09' W 117°42'1211.9
2015-Mar-16 15:33N 31°59' W 117°34'1 0.3
2015-Mar-16 12:15N 31°58' W 117°34'1 0.8
2015-Mar-16 11:33N 31°59' W 117°34'1 0.8
2015-Mar-16 10:33N 31°60' W 117°34'1 1.0
2015-Mar-16 09:33N 32°01' W 117°35'1 1.0
2015-Mar-16 08:33N 32°02' W 117°35'1 1.1
2015-Mar-16 07:29N 32°03' W 117°35'1 1.1
2015-Mar-16 06:17N 32°04' W 117°36'1 1.2
2015-Mar-16 05:33N 32°05' W 117°36'1 1.2
2015-Mar-16 04:33N 32°06' W 117°37'1 1.2
2015-Mar-16 03:33N 32°07' W 117°38'1 1.3
2015-Mar-16 02:34N 32°08' W 117°39'1 1.2
2015-Mar-16 01:33N 32°08' W 117°40'1 1.1
2015-Mar-16 00:33N 32°09' W 117°41'1 0.9
2015-Mar-15 23:33N 32°09' W 117°42'1 0.8
2015-Mar-15 22:27N 32°09' W 117°43'1 0.6
2015-Mar-15 21:33N 32°10' W 117°44'1 0.6
2015-Mar-15 20:33N 32°10' W 117°45'1 0.5
2015-Mar-15 19:33N 32°10' W 117°45'1 0.7
2015-Mar-15 18:33N 32°11' W 117°45'1 0.8
2015-Mar-15 17:34N 32°12' W 117°46'0 0.4
2015-Mar-15 16:33N 32°12' W 117°46'0 0.5
2015-Mar-15 15:33N 32°13' W 117°46'0 0.5
2015-Mar-15 14:33N 32°13' W 117°46'1 0.5
2015-Mar-15 13:33N 32°13' W 117°47'1 0.6
2015-Mar-15 12:33N 32°14' W 117°47'1 0.6
2015-Mar-15 11:33N 32°14' W 117°47'1 0.6
2015-Mar-15 10:33N 32°15' W 117°47'1 0.6
2015-Mar-15 09:33N 32°16' W 117°48'1 0.6
2015-Mar-15 08:33N 32°16' W 117°48'0 0.2
2015-Mar-15 07:33N 32°16' W 117°48'5 5.4
2015-Mar-15 06:33N 32°11' W 117°46'8 7.7
2015-Mar-15 05:33N 32°18' W 117°49'1312.8
2015-Mar-15 04:34N 32°31' W 117°53'1313.1
2015-Mar-15 03:34N 32°44' W 117°56'1313.0
2015-Mar-15 02:34N 32°56' W 117°60'1313.0
2015-Mar-15 01:33N 33°09' W 118°03'1312.6
2015-Mar-15 00:33N 33°21' W 118°07'1611.2
2015-Mar-14 23:10N 33°36' W 118°13'710.6
2015-Mar-14 22:33N 33°42' W 118°11'4 3.5
2015-Mar-14 21:31N 33°45' W 118°13'0 0.0
2015-Mar-14 20:31N 33°45' W 118°13'0 0.0
2015-Mar-14 19:31N 33°45' W 118°13'0 0.0
2015-Mar-14 18:31N 33°45' W 118°13'0 0.0
2015-Mar-14 17:31N 33°45' W 118°13'0 0.0
2015-Mar-14 16:31N 33°45' W 118°13'0 0.0
2015-Mar-14 15:31N 33°45' W 118°13'0 0.0
2015-Mar-14 14:31N 33°45' W 118°13'0 0.0
2015-Mar-14 13:31N 33°45' W 118°13'0 0.0
2015-Mar-14 12:31N 33°45' W 118°13'0 0.0
2015-Mar-14 11:31N 33°45' W 118°13'0 0.0
2015-Mar-14 10:31N 33°45' W 118°13'0 0.0
2015-Mar-14 09:31N 33°45' W 118°13'0 0.0
2015-Mar-14 08:31N 33°45' W 118°13'0 0.0
2015-Mar-14 07:31N 33°45' W 118°13'0 0.0
2015-Mar-14 06:31N 33°45' W 118°13'0 0.0
2015-Mar-14 05:31N 33°45' W 118°13'0 0.0
2015-Mar-14 04:31N 33°45' W 118°13'0 0.0
2015-Mar-14 03:31N 33°45' W 118°13'0 0.0
2015-Mar-14 02:31N 33°45' W 118°13'0 0.0
2015-Mar-14 01:31N 33°45' W 118°13'0 0.0
2015-Mar-14 00:31N 33°45' W 118°13'0 0.0
2015-Mar-13 23:31N 33°45' W 118°13'0 0.0
2015-Mar-13 22:31N 33°45' W 118°13'0 0.0
2015-Mar-13 21:31N 33°45' W 118°13'0 0.0
2015-Mar-13 20:31N 33°45' W 118°13'0 0.0
2015-Mar-13 19:31N 33°45' W 118°13'0 0.1
2015-Mar-13 18:31N 33°45' W 118°13'0 0.0
2015-Mar-13 17:31N 33°45' W 118°13'2 1.9
2015-Mar-13 16:33N 33°44' W 118°12'8 6.0
2015-Mar-13 15:18N 33°37' W 118°14'6 8.4
2015-Mar-13 14:33N 33°36' W 118°21'6310.4
2015-Mar-13 08:25N 34°06' W 119°29'4911.7
2015-Mar-13 04:14N 34°18' W 120°26'1911.3
2015-Mar-13 02:33N 34°23' W 120°49'1111.5
2015-Mar-13 01:33N 34°26' W 121°02'1211.6
2015-Mar-13 00:33N 34°30' W 121°15'6 5.7
2015-Mar-12 23:30N 34°33' W 121°22'1313.2
2015-Mar-12 22:33N 34°43' W 121°30'1513.1
2015-Mar-12 21:25N 34°56' W 121°40'19813.3
2015-Mar-12 06:33N 37°47' W 123°43'1313.5
2015-Mar-12 05:33N 37°60' W 123°50'1313.5
2015-Mar-12 04:33N 38°12' W 123°56'1313.1
2015-Mar-12 03:33N 38°25' W 124°02'43613.1
2015-Mar-10 18:12N 45°38' W 125°15'3713.2
2015-Mar-10 15:26N 46°14' W 125°16'13613.7
2015-Mar-10 05:30N 48°30' W 125°01'2913.9
2015-Mar-10 03:23N 48°23' W 124°18'1113.1
2015-Mar-10 02:33N 48°19' W 124°02'1312.8
2015-Mar-10 01:33N 48°16' W 123°43'1110.3
2015-Mar-10 00:31N 48°18' W 123°28'8 7.9
2015-Mar-09 23:33N 48°23' W 123°19'7 6.6
2015-Mar-09 22:33N 48°28' W 123°12'1010.1
2015-Mar-09 21:34N 48°38' W 123°14'8 8.4
2015-Mar-09 20:33N 48°45' W 123°07'7 7.2
2015-Mar-09 19:33N 48°52' W 123°05'1414.4
2015-Mar-09 18:33N 49°02' W 123°21'1313.1
2015-Mar-09 17:33N 49°15' W 123°21'8 8.2
2015-Mar-09 16:33N 49°19' W 123°10'6 6.0
2015-Mar-09 15:33N 49°18' W 123°01'3 3.3
2015-Mar-09 14:33N 49°18' W 122°56'0 0.1
2015-Mar-09 13:33N 49°18' W 122°56'0 0.1
2015-Mar-09 12:33N 49°18' W 122°56'0 0.0
2015-Mar-09 11:33N 49°18' W 122°56'0 0.2
2015-Mar-09 10:33N 49°18' W 122°56'0 0.1
2015-Mar-09 09:33N 49°18' W 122°56'0 0.0
2015-Mar-09 08:33N 49°18' W 122°56'0 0.0
2015-Mar-09 07:33N 49°18' W 122°56'0 0.0
2015-Mar-09 06:33N 49°18' W 122°56'0 0.1
2015-Mar-09 05:33N 49°18' W 122°56'0 0.0
2015-Mar-09 04:33N 49°18' W 122°56'0 0.1
2015-Mar-09 03:33N 49°18' W 122°56'0 0.1
2015-Mar-09 02:33N 49°18' W 122°56'0 0.1
2015-Mar-09 01:33N 49°18' W 122°56'0 0.0
2015-Mar-09 00:33N 49°18' W 122°56'0 0.1
2015-Mar-08 23:33N 49°18' W 122°56'0 0.0
2015-Mar-08 22:33N 49°18' W 122°56'0 0.1
2015-Mar-08 21:33N 49°18' W 122°56'0 0.1
2015-Mar-08 20:33N 49°18' W 122°56'0 0.2
2015-Mar-08 19:33N 49°18' W 122°56'0 0.0
2015-Mar-08 18:33N 49°18' W 122°56'1 0.5
2015-Mar-08 17:33N 49°17' W 122°57'0 0.0
2015-Mar-08 16:33N 49°17' W 122°57'0 0.0
2015-Mar-08 15:33N 49°17' W 122°57'0 0.0
2015-Mar-08 14:33N 49°17' W 122°57'0 0.0
2015-Mar-08 13:33N 49°17' W 122°57'0 0.0
2015-Mar-08 12:33N 49°17' W 122°57'0 0.0
2015-Mar-08 11:33N 49°17' W 122°57'0 0.0
2015-Mar-08 10:33N 49°17' W 122°57'0 0.0
2015-Mar-08 09:33N 49°17' W 122°57'0 0.0
2015-Mar-08 08:33N 49°17' W 122°57'0 0.0
2015-Mar-08 07:33N 49°17' W 122°57'0 0.0
2015-Mar-08 06:33N 49°17' W 122°57'0 0.0
2015-Mar-08 05:33N 49°17' W 122°57'0 0.0
2015-Mar-08 04:33N 49°17' W 122°57'0 0.0
2015-Mar-08 03:33N 49°17' W 122°57'0 0.0
2015-Mar-08 02:33N 49°17' W 122°57'0 0.0
2015-Mar-08 01:33N 49°17' W 122°57'0 0.0
2015-Mar-08 00:33N 49°17' W 122°57'0 0.0
2015-Mar-07 23:33N 49°17' W 122°57'0 0.0
2015-Mar-07 22:33N 49°17' W 122°57'0 0.0
2015-Mar-07 21:33N 49°17' W 122°57'0 0.0
2015-Mar-07 20:30N 49°17' W 122°57'0 0.0
2015-Mar-07 19:33N 49°17' W 122°57'0 0.0
2015-Mar-07 18:33N 49°17' W 122°57'0 0.0
2015-Mar-07 17:33N 49°17' W 122°57'0 0.0
2015-Mar-07 16:33N 49°17' W 122°57'0 0.0
2015-Mar-07 15:30N 49°17' W 122°57'0 0.2
2015-Mar-07 14:33N 49°18' W 122°57'1 0.6
2015-Mar-07 13:29N 49°18' W 122°56'0 0.1
2015-Mar-07 12:32N 49°18' W 122°56'0 0.1
2015-Mar-07 11:32N 49°18' W 122°56'0 0.0
2015-Mar-07 10:32N 49°18' W 122°56'0 0.1
2015-Mar-07 09:31N 49°18' W 122°56'3 3.0
2015-Mar-07 08:34N 49°18' W 123°01'5 4.9
2015-Mar-07 07:34N 49°19' W 123°08'1110.7
2015-Mar-07 06:33N 49°11' W 123°20'1312.9
2015-Mar-07 05:34N 48°59' W 123°14'1313.0
2015-Mar-07 04:34N 48°49' W 123°01'1111.4
2015-Mar-07 03:33N 48°42' W 123°14'1313.4
2015-Mar-07 02:33N 48°29' W 123°10'1211.6
2015-Mar-07 01:33N 48°21' W 123°24'7 7.0
2015-Mar-07 00:31N 48°14' W 123°27'1313.8
2015-Mar-06 23:33N 48°14' W 123°48'1514.2
2015-Mar-06 22:32N 48°18' W 124°08'3014.1
2015-Mar-06 20:25N 48°29' W 124°50'1011.9
2015-Mar-06 19:33N 48°24' W 125°03'1413.9
2015-Mar-06 18:33N 48°10' W 125°09'  
Track history (hours):
 
Tides and Currents Weather Stations Pressure Air Temp Water Temp Dewpoint Dewpoint Depression Visibility Wind Speed Wind Dir Waves Ship Positions

Energy Champion

Last reported at 2015-Mar-16 18:28 UTC. Time now 2015-Apr-01 14:28 UTC.
Position N 31°52' W 117°39'.
Warning: this ship's position is 15 days out of date.

Length 228 m; draft 8 m.

Type: Tanker. MMSI: 235009420.

Date/timePositionNaut miles runAvg speedWind from/ knotsBaromVisibWave heightAir tempDewpointWater temp
2015-Mar-16 18:28N 31°52' W 117°39'1212.2
2015-Mar-16 17:32N 32°04' W 117°42'6 5.8
2015-Mar-16 16:33N 32°09' W 117°42'1211.9
2015-Mar-16 15:33N 31°59' W 117°34'1 0.3
2015-Mar-16 12:15N 31°58' W 117°34'1 0.8
2015-Mar-16 11:33N 31°59' W 117°34'1 0.8
2015-Mar-16 10:33N 31°60' W 117°34'1 1.0
2015-Mar-16 09:33N 32°01' W 117°35'1 1.0
2015-Mar-16 08:33N 32°02' W 117°35'1 1.1
2015-Mar-16 07:29N 32°03' W 117°35'1 1.1
2015-Mar-16 06:17N 32°04' W 117°36'1 1.2
2015-Mar-16 05:33N 32°05' W 117°36'1 1.2
2015-Mar-16 04:33N 32°06' W 117°37'1 1.2
2015-Mar-16 03:33N 32°07' W 117°38'1 1.3
2015-Mar-16 02:34N 32°08' W 117°39'1 1.2
2015-Mar-16 01:33N 32°08' W 117°40'1 1.1
2015-Mar-16 00:33N 32°09' W 117°41'1 0.9
2015-Mar-15 23:33N 32°09' W 117°42'1 0.8
2015-Mar-15 22:27N 32°09' W 117°43'1 0.6
2015-Mar-15 21:33N 32°10' W 117°44'1 0.6
2015-Mar-15 20:33N 32°10' W 117°45'1 0.5
2015-Mar-15 19:33N 32°10' W 117°45'1 0.7
2015-Mar-15 18:33N 32°11' W 117°45'1 0.8
2015-Mar-15 17:34N 32°12' W 117°46'0 0.4
2015-Mar-15 16:33N 32°12' W 117°46'0 0.5
2015-Mar-15 15:33N 32°13' W 117°46'0 0.5
2015-Mar-15 14:33N 32°13' W 117°46'1 0.5
2015-Mar-15 13:33N 32°13' W 117°47'1 0.6
2015-Mar-15 12:33N 32°14' W 117°47'1 0.6
2015-Mar-15 11:33N 32°14' W 117°47'1 0.6
2015-Mar-15 10:33N 32°15' W 117°47'1 0.6
2015-Mar-15 09:33N 32°16' W 117°48'1 0.6
2015-Mar-15 08:33N 32°16' W 117°48'0 0.2
2015-Mar-15 07:33N 32°16' W 117°48'5 5.4
2015-Mar-15 06:33N 32°11' W 117°46'8 7.7
2015-Mar-15 05:33N 32°18' W 117°49'1312.8
2015-Mar-15 04:34N 32°31' W 117°53'1313.1
2015-Mar-15 03:34N 32°44' W 117°56'1313.0
2015-Mar-15 02:34N 32°56' W 117°60'1313.0
2015-Mar-15 01:33N 33°09' W 118°03'1312.6
2015-Mar-15 00:33N 33°21' W 118°07'1611.2
2015-Mar-14 23:10N 33°36' W 118°13'710.6
2015-Mar-14 22:33N 33°42' W 118°11'4 3.5
2015-Mar-14 21:31N 33°45' W 118°13'0 0.0
2015-Mar-14 20:31N 33°45' W 118°13'0 0.0
2015-Mar-14 19:31N 33°45' W 118°13'0 0.0
2015-Mar-14 18:31N 33°45' W 118°13'0 0.0
2015-Mar-14 17:31N 33°45' W 118°13'0 0.0
2015-Mar-14 16:31N 33°45' W 118°13'0 0.0
2015-Mar-14 15:31N 33°45' W 118°13'0 0.0
2015-Mar-14 14:31N 33°45' W 118°13'0 0.0
2015-Mar-14 13:31N 33°45' W 118°13'0 0.0
2015-Mar-14 12:31N 33°45' W 118°13'0 0.0
2015-Mar-14 11:31N 33°45' W 118°13'0 0.0
2015-Mar-14 10:31N 33°45' W 118°13'0 0.0
2015-Mar-14 09:31N 33°45' W 118°13'0 0.0
2015-Mar-14 08:31N 33°45' W 118°13'0 0.0
2015-Mar-14 07:31N 33°45' W 118°13'0 0.0
2015-Mar-14 06:31N 33°45' W 118°13'0 0.0
2015-Mar-14 05:31N 33°45' W 118°13'0 0.0
2015-Mar-14 04:31N 33°45' W 118°13'0 0.0
2015-Mar-14 03:31N 33°45' W 118°13'0 0.0
2015-Mar-14 02:31N 33°45' W 118°13'0 0.0
2015-Mar-14 01:31N 33°45' W 118°13'0 0.0
2015-Mar-14 00:31N 33°45' W 118°13'0 0.0
2015-Mar-13 23:31N 33°45' W 118°13'0 0.0
2015-Mar-13 22:31N 33°45' W 118°13'0 0.0
2015-Mar-13 21:31N 33°45' W 118°13'0 0.0
2015-Mar-13 20:31N 33°45' W 118°13'0 0.0
2015-Mar-13 19:31N 33°45' W 118°13'0 0.1
2015-Mar-13 18:31N 33°45' W 118°13'0 0.0
2015-Mar-13 17:31N 33°45' W 118°13'2 1.9
2015-Mar-13 16:33N 33°44' W 118°12'8 6.0
2015-Mar-13 15:18N 33°37' W 118°14'6 8.4
2015-Mar-13 14:33N 33°36' W 118°21'6310.4
2015-Mar-13 08:25N 34°06' W 119°29'4911.7
2015-Mar-13 04:14N 34°18' W 120°26'1911.3
2015-Mar-13 02:33N 34°23' W 120°49'1111.5
2015-Mar-13 01:33N 34°26' W 121°02'1211.6
2015-Mar-13 00:33N 34°30' W 121°15'6 5.7
2015-Mar-12 23:30N 34°33' W 121°22'1313.2
2015-Mar-12 22:33N 34°43' W 121°30'1513.1
2015-Mar-12 21:25N 34°56' W 121°40'19813.3
2015-Mar-12 06:33N 37°47' W 123°43'1313.5
2015-Mar-12 05:33N 37°60' W 123°50'1313.5
2015-Mar-12 04:33N 38°12' W 123°56'1313.1
2015-Mar-12 03:33N 38°25' W 124°02'43613.1
2015-Mar-10 18:12N 45°38' W 125°15'3713.2
2015-Mar-10 15:26N 46°14' W 125°16'13613.7
2015-Mar-10 05:30N 48°30' W 125°01'2913.9
2015-Mar-10 03:23N 48°23' W 124°18'1113.1
2015-Mar-10 02:33N 48°19' W 124°02'1312.8
2015-Mar-10 01:33N 48°16' W 123°43'1110.3
2015-Mar-10 00:31N 48°18' W 123°28'8 7.9
2015-Mar-09 23:33N 48°23' W 123°19'7 6.6
2015-Mar-09 22:33N 48°28' W 123°12'1010.1
2015-Mar-09 21:34N 48°38' W 123°14'8 8.4
2015-Mar-09 20:33N 48°45' W 123°07'7 7.2
2015-Mar-09 19:33N 48°52' W 123°05'1414.4
2015-Mar-09 18:33N 49°02' W 123°21'1313.1
2015-Mar-09 17:33N 49°15' W 123°21'8 8.2
2015-Mar-09 16:33N 49°19' W 123°10'6 6.0
2015-Mar-09 15:33N 49°18' W 123°01'3 3.3
2015-Mar-09 14:33N 49°18' W 122°56'0 0.1
2015-Mar-09 13:33N 49°18' W 122°56'0 0.1
2015-Mar-09 12:33N 49°18' W 122°56'0 0.0
2015-Mar-09 11:33N 49°18' W 122°56'0 0.2
2015-Mar-09 10:33N 49°18' W 122°56'0 0.1
2015-Mar-09 09:33N 49°18' W 122°56'0 0.0
2015-Mar-09 08:33N 49°18' W 122°56'0 0.0
2015-Mar-09 07:33N 49°18' W 122°56'0 0.0
2015-Mar-09 06:33N 49°18' W 122°56'0 0.1
2015-Mar-09 05:33N 49°18' W 122°56'0 0.0
2015-Mar-09 04:33N 49°18' W 122°56'0 0.1
2015-Mar-09 03:33N 49°18' W 122°56'0 0.1
2015-Mar-09 02:33N 49°18' W 122°56'0 0.1
2015-Mar-09 01:33N 49°18' W 122°56'0 0.0
2015-Mar-09 00:33N 49°18' W 122°56'0 0.1
2015-Mar-08 23:33N 49°18' W 122°56'0 0.0
2015-Mar-08 22:33N 49°18' W 122°56'0 0.1
2015-Mar-08 21:33N 49°18' W 122°56'0 0.1
2015-Mar-08 20:33N 49°18' W 122°56'0 0.2
2015-Mar-08 19:33N 49°18' W 122°56'0 0.0
2015-Mar-08 18:33N 49°18' W 122°56'1 0.5
2015-Mar-08 17:33N 49°17' W 122°57'0 0.0
2015-Mar-08 16:33N 49°17' W 122°57'0 0.0
2015-Mar-08 15:33N 49°17' W 122°57'0 0.0
2015-Mar-08 14:33N 49°17' W 122°57'0 0.0
2015-Mar-08 13:33N 49°17' W 122°57'0 0.0
2015-Mar-08 12:33N 49°17' W 122°57'0 0.0
2015-Mar-08 11:33N 49°17' W 122°57'0 0.0
2015-Mar-08 10:33N 49°17' W 122°57'0 0.0
2015-Mar-08 09:33N 49°17' W 122°57'0 0.0
2015-Mar-08 08:33N 49°17' W 122°57'0 0.0
2015-Mar-08 07:33N 49°17' W 122°57'0 0.0
2015-Mar-08 06:33N 49°17' W 122°57'0 0.0
2015-Mar-08 05:33N 49°17' W 122°57'0 0.0
2015-Mar-08 04:33N 49°17' W 122°57'0 0.0
2015-Mar-08 03:33N 49°17' W 122°57'0 0.0
2015-Mar-08 02:33N 49°17' W 122°57'0 0.0
2015-Mar-08 01:33N 49°17' W 122°57'0 0.0
2015-Mar-08 00:33N 49°17' W 122°57'0 0.0
2015-Mar-07 23:33N 49°17' W 122°57'0 0.0
2015-Mar-07 22:33N 49°17' W 122°57'0 0.0
2015-Mar-07 21:33N 49°17' W 122°57'0 0.0
2015-Mar-07 20:30N 49°17' W 122°57'0 0.0
2015-Mar-07 19:33N 49°17' W 122°57'0 0.0
2015-Mar-07 18:33N 49°17' W 122°57'0 0.0
2015-Mar-07 17:33N 49°17' W 122°57'0 0.0
2015-Mar-07 16:33N 49°17' W 122°57'0 0.0
2015-Mar-07 15:30N 49°17' W 122°57'0 0.2
2015-Mar-07 14:33N 49°18' W 122°57'1 0.6
2015-Mar-07 13:29N 49°18' W 122°56'0 0.1
2015-Mar-07 12:32N 49°18' W 122°56'0 0.1
2015-Mar-07 11:32N 49°18' W 122°56'0 0.0
2015-Mar-07 10:32N 49°18' W 122°56'0 0.1
2015-Mar-07 09:31N 49°18' W 122°56'3 3.0
2015-Mar-07 08:34N 49°18' W 123°01'5 4.9
2015-Mar-07 07:34N 49°19' W 123°08'1110.7
2015-Mar-07 06:33N 49°11' W 123°20'1312.9
2015-Mar-07 05:34N 48°59' W 123°14'1313.0
2015-Mar-07 04:34N 48°49' W 123°01'1111.4
2015-Mar-07 03:33N 48°42' W 123°14'1313.4
2015-Mar-07 02:33N 48°29' W 123°10'1211.6
2015-Mar-07 01:33N 48°21' W 123°24'7 7.0
2015-Mar-07 00:31N 48°14' W 123°27'1313.8
2015-Mar-06 23:33N 48°14' W 123°48'1514.2
2015-Mar-06 22:32N 48°18' W 124°08'3014.1
2015-Mar-06 20:25N 48°29' W 124°50'1011.9
2015-Mar-06 19:33N 48°24' W 125°03'1413.9
2015-Mar-06 18:33N 48°10' W 125°09'  

Dump ship's entire track history